createdAt,value
2022-10-02T00:00:06.511Z,104.10
2022-10-02T00:01:06.621Z,103.84
2022-10-02T00:02:06.495Z,103.59
2022-10-02T00:03:06.496Z,103.46
2022-10-02T00:04:06.496Z,102.95
2022-10-02T00:05:06.458Z,103.20
2022-10-02T00:06:06.434Z,103.97
2022-10-02T00:07:06.428Z,104.30
2022-10-02T00:08:06.407Z,104.30
2022-10-02T00:09:06.392Z,104.23
2022-10-02T00:10:06.380Z,104.43
2022-10-02T00:11:06.358Z,104.95
2022-10-02T00:12:06.337Z,105.08
2022-10-02T00:13:06.341Z,105.81
2022-10-02T00:14:06.322Z,105.94
2022-10-02T00:15:06.373Z,106.21
2022-10-02T00:16:06.360Z,104.95
2022-10-02T00:17:06.317Z,105.81
2022-10-02T00:18:06.277Z,105.68
2022-10-02T00:19:06.581Z,106.28
2022-10-02T00:20:06.246Z,106.28
2022-10-02T00:21:06.272Z,106.08
2022-10-02T00:22:06.212Z,106.48
2022-10-02T00:23:06.225Z,107.23
2022-10-02T00:24:06.177Z,106.89
2022-10-02T00:25:06.180Z,107.37
2022-10-02T00:26:06.180Z,107.79
2022-10-02T00:27:06.201Z,107.79
2022-10-02T00:28:06.179Z,108.55
2022-10-02T00:29:06.147Z,108.77
2022-10-02T00:30:06.097Z,108.98
2022-10-02T00:31:06.125Z,109.12
2022-10-02T00:32:06.200Z,110.20
2022-10-02T00:33:06.135Z,110.56
2022-10-02T00:34:06.060Z,110.63
2022-10-02T00:35:06.055Z,111.59
2022-10-02T00:36:06.024Z,112.11
2022-10-02T00:37:06.044Z,111.22
2022-10-02T00:38:06.037Z,111.37
2022-10-02T00:39:06.014Z,111.67
2022-10-02T00:40:05.976Z,112.49
2022-10-02T00:41:06.010Z,111.74
2022-10-02T00:42:05.958Z,111.52
2022-10-02T00:43:05.969Z,111.37
2022-10-02T00:44:05.936Z,111.59
2022-10-02T00:45:05.928Z,111.82
2022-10-02T00:46:05.974Z,111.29
2022-10-02T00:47:05.915Z,111.15
2022-10-02T00:48:05.879Z,111.29
2022-10-02T00:49:05.873Z,111.37
2022-10-02T00:50:05.835Z,111.44
2022-10-02T00:51:05.826Z,111.89
2022-10-02T00:52:05.921Z,113.33
2022-10-02T00:53:05.804Z,113.87
2022-10-02T00:54:05.819Z,114.57
2022-10-02T00:55:05.826Z,114.41
2022-10-02T00:56:05.864Z,114.88
2022-10-02T00:57:05.754Z,114.88
2022-10-02T00:58:05.789Z,114.80
2022-10-02T00:59:05.771Z,115.04
2022-10-02T01:00:05.742Z,115.60
2022-10-02T01:01:05.769Z,116.08
2022-10-02T01:02:05.747Z,116.00
2022-10-02T01:03:05.663Z,116.16
2022-10-02T01:04:05.670Z,116.08
2022-10-02T01:05:05.654Z,116.08
2022-10-02T01:06:05.639Z,116.48
2022-10-02T01:07:05.634Z,116.32
2022-10-02T01:08:05.616Z,116.16
2022-10-02T01:09:05.597Z,115.84
2022-10-02T01:10:05.622Z,116.32
2022-10-02T01:11:05.601Z,116.16
2022-10-02T01:12:05.569Z,115.52
2022-10-02T01:13:05.536Z,115.52
2022-10-02T01:14:05.521Z,114.73
2022-10-02T01:15:05.518Z,114.41
2022-10-02T01:16:05.545Z,113.64
2022-10-02T01:17:05.505Z,113.64
2022-10-02T01:18:05.493Z,113.87
2022-10-02T01:19:05.466Z,113.02
2022-10-02T01:20:05.464Z,112.19
2022-10-02T01:21:05.446Z,112.11
2022-10-02T01:22:05.467Z,111.96
2022-10-02T01:23:05.434Z,111.44
2022-10-02T01:24:05.410Z,111.37
2022-10-02T01:25:05.370Z,111.22
2022-10-02T01:26:05.385Z,110.71
2022-10-02T01:27:05.374Z,110.34
2022-10-02T01:28:05.369Z,110.34
2022-10-02T01:29:05.314Z,110.20
2022-10-02T01:30:05.337Z,109.40
2022-10-02T01:31:05.294Z,108.91
2022-10-02T01:32:05.302Z,108.77
2022-10-02T01:33:05.294Z,108.41
2022-10-02T01:34:05.259Z,107.86
2022-10-02T01:35:05.256Z,108.20
2022-10-02T01:36:05.252Z,107.58
2022-10-02T01:37:05.209Z,107.30
2022-10-02T01:38:05.228Z,106.82
2022-10-02T01:39:05.203Z,106.69
2022-10-02T01:40:05.198Z,106.28
2022-10-02T01:41:05.175Z,105.54
2022-10-02T01:42:05.174Z,104.88
2022-10-02T01:43:05.130Z,104.82
2022-10-02T01:44:05.146Z,104.82
2022-10-02T01:45:05.112Z,104.30
2022-10-02T01:46:05.199Z,104.04
2022-10-02T01:47:05.104Z,103.65
2022-10-02T01:48:05.101Z,103.27
2022-10-02T01:49:05.053Z,102.76
2022-10-02T01:50:05.079Z,102.51
2022-10-02T01:51:05.043Z,101.95
2022-10-02T01:52:05.060Z,101.70
2022-10-02T01:53:05.040Z,101.21
2022-10-02T01:54:04.988Z,100.72
2022-10-02T01:55:04.997Z,99.70
2022-10-02T01:56:04.960Z,99.88
2022-10-02T01:57:04.944Z,99.35
2022-10-02T01:58:04.996Z,98.47
2022-10-02T01:59:04.955Z,97.78
2022-10-02T02:00:04.912Z,97.61
2022-10-02T02:01:04.966Z,96.99
2022-10-02T02:02:04.922Z,96.93
2022-10-02T02:03:04.864Z,96.38
2022-10-02T02:04:04.883Z,95.61
2022-10-02T02:05:04.856Z,95.50
2022-10-02T02:06:04.836Z,94.90
2022-10-02T02:07:04.833Z,94.53
2022-10-02T02:08:04.805Z,94.47
2022-10-02T02:09:04.821Z,94.00
2022-10-02T02:10:04.794Z,95.14
2022-10-02T02:11:04.769Z,95.03
2022-10-02T02:12:04.774Z,94.60
2022-10-02T02:13:04.752Z,94.18
2022-10-02T02:14:04.757Z,94.07
2022-10-02T02:15:04.736Z,93.86
2022-10-02T02:16:04.763Z,93.03
2022-10-02T02:17:04.696Z,93.23
2022-10-02T02:18:04.692Z,92.31
2022-10-02T02:19:04.667Z,92.31
2022-10-02T02:20:04.648Z,91.50
2022-10-02T02:21:04.646Z,91.50
2022-10-02T02:22:04.649Z,91.30
2022-10-02T02:23:04.632Z,90.91
2022-10-02T02:24:04.614Z,90.61
2022-10-02T02:25:04.657Z,90.61
2022-10-02T02:26:04.565Z,90.51
2022-10-02T02:27:04.575Z,90.81
2022-10-02T02:28:04.659Z,90.22
2022-10-02T02:29:04.537Z,89.64
2022-10-02T02:30:04.979Z,89.83
2022-10-02T02:31:04.659Z,89.54
2022-10-02T02:32:04.732Z,89.35
2022-10-02T02:33:04.662Z,89.07
2022-10-02T02:34:04.477Z,89.16
2022-10-02T02:35:04.440Z,89.35
2022-10-02T02:36:04.438Z,89.16
2022-10-02T02:37:04.426Z,88.69
2022-10-02T02:38:04.433Z,88.60
2022-10-02T02:39:04.430Z,88.50
2022-10-02T02:40:04.405Z,88.60
2022-10-02T02:41:04.374Z,87.85
2022-10-02T02:42:04.375Z,87.76
2022-10-02T02:43:04.352Z,87.67
2022-10-02T02:44:04.354Z,87.67
2022-10-02T02:45:04.331Z,87.12
2022-10-02T02:46:04.333Z,87.12
2022-10-02T02:47:04.298Z,86.67
2022-10-02T02:48:04.304Z,87.31
2022-10-02T02:49:04.285Z,87.21
2022-10-02T02:50:04.284Z,87.03
2022-10-02T02:51:04.238Z,86.85
2022-10-02T02:52:04.230Z,87.31
2022-10-02T02:53:04.245Z,87.76
2022-10-02T02:54:04.214Z,87.67
2022-10-02T02:55:04.186Z,87.67
2022-10-02T02:56:04.171Z,87.40
2022-10-02T02:57:04.183Z,87.76
2022-10-02T02:58:04.499Z,87.76
2022-10-02T02:59:04.230Z,87.85
2022-10-02T03:00:04.212Z,87.85
2022-10-02T03:01:04.409Z,87.40
2022-10-02T03:02:04.249Z,87.85
2022-10-02T03:03:04.338Z,87.67
2022-10-02T03:04:04.322Z,87.95
2022-10-02T03:05:04.483Z,87.95
2022-10-02T03:06:04.414Z,87.85
2022-10-02T03:07:04.316Z,88.41
2022-10-02T03:08:04.185Z,88.69
2022-10-02T03:09:04.293Z,88.69
2022-10-02T03:10:04.376Z,88.13
2022-10-02T03:11:04.457Z,88.88
2022-10-02T03:12:04.285Z,89.07
2022-10-02T03:13:04.317Z,88.88
2022-10-02T03:14:04.035Z,89.07
2022-10-02T03:15:03.938Z,89.54
2022-10-02T03:16:04.346Z,89.35
2022-10-02T03:17:04.163Z,89.83
2022-10-02T03:18:04.174Z,89.93
2022-10-02T03:19:03.901Z,89.54
2022-10-02T03:20:04.300Z,89.54
2022-10-02T03:21:03.853Z,89.93
2022-10-02T03:22:03.838Z,90.22
2022-10-02T03:23:03.830Z,89.93
2022-10-02T03:24:03.853Z,89.74
2022-10-02T03:25:03.816Z,89.93
2022-10-02T03:26:03.931Z,89.93
2022-10-02T03:27:03.806Z,89.83
2022-10-02T03:28:03.820Z,90.03
2022-10-02T03:29:03.775Z,90.22
2022-10-02T03:30:03.734Z,90.61
2022-10-02T03:31:03.755Z,90.42
2022-10-02T03:32:03.694Z,90.12
2022-10-02T03:33:03.707Z,90.51
2022-10-02T03:34:03.710Z,90.03
2022-10-02T03:35:03.655Z,89.93
2022-10-02T03:36:03.639Z,90.12
2022-10-02T03:37:03.625Z,89.74
2022-10-02T03:38:03.642Z,89.83
2022-10-02T03:39:24.360Z,89.74
2022-10-02T03:40:03.616Z,89.26
2022-10-02T03:41:03.789Z,88.69
2022-10-02T03:42:04.093Z,89.16
2022-10-02T03:43:03.605Z,89.35
2022-10-02T03:44:03.537Z,89.74
2022-10-02T03:45:03.569Z,89.74
2022-10-02T03:46:03.596Z,89.64
2022-10-02T03:47:03.596Z,90.03
2022-10-02T03:48:03.494Z,89.74
2022-10-02T03:49:03.785Z,90.22
2022-10-02T03:50:03.558Z,90.03
2022-10-02T03:51:03.467Z,90.22
2022-10-02T03:52:03.509Z,90.03
2022-10-02T03:53:03.434Z,90.03
2022-10-02T03:54:03.722Z,90.22
2022-10-02T03:55:03.424Z,89.93
2022-10-02T03:56:03.556Z,89.83
2022-10-02T03:57:03.652Z,90.12
2022-10-02T03:58:03.498Z,90.03
2022-10-02T03:59:03.396Z,90.42
2022-10-02T04:00:03.344Z,90.81
2022-10-02T04:01:03.333Z,91.00
2022-10-02T04:02:03.344Z,90.61
2022-10-02T04:03:03.302Z,91.30
2022-10-02T04:04:03.307Z,91.00
2022-10-02T04:05:03.279Z,91.10
2022-10-02T04:06:03.350Z,90.81
2022-10-02T04:07:03.231Z,91.20
2022-10-02T04:08:03.245Z,91.70
2022-10-02T04:09:03.228Z,91.40
2022-10-02T04:10:03.234Z,91.40
2022-10-02T04:11:03.282Z,91.20
2022-10-02T04:12:03.392Z,91.30
2022-10-02T04:13:03.206Z,91.10
2022-10-02T04:14:03.229Z,91.60
2022-10-02T04:15:03.195Z,91.90
2022-10-02T04:16:03.196Z,92.72
2022-10-02T04:17:03.177Z,92.41
2022-10-02T04:18:03.142Z,93.03
2022-10-02T04:19:03.087Z,92.82
2022-10-02T04:20:03.116Z,93.44
2022-10-02T04:21:03.096Z,93.44
2022-10-02T04:22:03.150Z,93.96
2022-10-02T04:23:03.062Z,94.07
2022-10-02T04:24:03.067Z,94.39
2022-10-02T04:25:03.098Z,95.03
2022-10-02T04:26:03.182Z,95.46
2022-10-02T04:27:03.100Z,94.10
2022-10-02T04:28:03.084Z,94.10
2022-10-02T04:29:03.019Z,94.42
2022-10-02T04:30:02.996Z,94.63
2022-10-02T04:31:03.082Z,94.74
2022-10-02T04:32:02.913Z,95.01
2022-10-02T04:33:02.965Z,95.71
2022-10-02T04:34:02.918Z,96.26
2022-10-02T04:35:02.946Z,96.60
2022-10-02T04:36:02.873Z,96.60
2022-10-02T04:37:02.845Z,97.44
2022-10-02T04:38:02.838Z,98.01
2022-10-02T04:39:02.868Z,98.47
2022-10-02T04:40:02.874Z,98.59
2022-10-02T04:41:02.811Z,99.11
2022-10-02T04:42:03.001Z,100.06
2022-10-02T04:43:02.784Z,100.96
2022-10-02T04:44:02.788Z,101.95
2022-10-02T04:45:02.750Z,103.14
2022-10-02T04:46:02.804Z,104.36
2022-10-02T04:47:02.793Z,105.94
2022-10-02T04:48:02.741Z,107.86
2022-10-02T04:49:02.722Z,109.05
2022-10-02T04:50:02.792Z,109.84
2022-10-02T04:51:02.707Z,111.59
2022-10-02T04:52:03.051Z,112.87
2022-10-02T04:53:02.901Z,114.26
2022-10-02T04:54:02.681Z,115.44
2022-10-02T04:55:02.617Z,116.40
2022-10-02T04:56:02.634Z,117.30
2022-10-02T04:57:02.605Z,119.22
2022-10-02T04:58:02.758Z,120.76
2022-10-02T04:59:02.765Z,122.35
2022-10-02T05:00:02.704Z,122.71
2022-10-02T05:01:02.640Z,122.98
2022-10-02T05:02:02.645Z,123.62
2022-10-02T05:03:02.524Z,124.07
2022-10-02T05:04:04.335Z,124.54
2022-10-02T05:05:02.563Z,125.85
2022-10-02T05:06:02.504Z,126.32
2022-10-02T05:07:02.490Z,128.16
2022-10-02T05:08:02.660Z,130.15
2022-10-02T05:09:02.424Z,132.31
2022-10-02T05:10:02.426Z,134.00
2022-10-02T05:11:02.416Z,135.74
2022-10-02T05:12:02.394Z,136.73
2022-10-02T05:13:02.531Z,139.35
2022-10-02T05:14:02.418Z,140.87
2022-10-02T05:15:02.376Z,141.71
2022-10-02T05:16:02.418Z,143.04
2022-10-02T05:17:02.370Z,144.77
2022-10-02T05:18:02.366Z,145.65
2022-10-02T05:19:02.364Z,145.90
2022-10-02T05:20:02.347Z,145.40
2022-10-02T05:21:02.302Z,145.40
2022-10-02T05:22:02.288Z,144.27
2022-10-02T05:23:02.308Z,143.90
2022-10-02T05:24:02.277Z,143.16
2022-10-02T05:25:02.212Z,143.65
2022-10-02T05:26:02.203Z,141.83
2022-10-02T05:27:02.199Z,142.19
2022-10-02T05:28:02.458Z,141.35
2022-10-02T05:29:02.169Z,142.07
2022-10-02T05:30:02.177Z,141.59
2022-10-02T05:31:02.163Z,141.59
2022-10-02T05:32:02.222Z,141.11
2022-10-02T05:33:02.134Z,140.87
2022-10-02T05:34:02.119Z,140.52
2022-10-02T05:35:02.220Z,139.93
2022-10-02T05:36:02.116Z,139.35
2022-10-02T05:37:02.071Z,138.66
2022-10-02T05:38:02.060Z,137.75
2022-10-02T05:39:02.078Z,137.18
2022-10-02T05:40:02.169Z,135.30
2022-10-02T05:41:02.068Z,134.00
2022-10-02T05:42:02.034Z,132.62
2022-10-02T05:43:02.028Z,132.10
2022-10-02T05:44:02.014Z,131.48
2022-10-02T05:45:02.031Z,130.86
2022-10-02T05:46:01.950Z,130.55
2022-10-02T05:47:01.995Z,129.44
2022-10-02T05:48:01.951Z,128.85
2022-10-02T05:49:01.893Z,128.25
2022-10-02T05:50:02.006Z,127.76
2022-10-02T05:51:01.880Z,127.28
2022-10-02T05:52:01.859Z,127.28
2022-10-02T05:53:01.855Z,126.42
2022-10-02T05:54:01.840Z,126.61
2022-10-02T05:55:01.832Z,126.32
2022-10-02T05:56:01.808Z,125.75
2022-10-02T05:57:01.905Z,126.13
2022-10-02T05:58:01.784Z,126.99
2022-10-02T05:59:01.754Z,126.51
2022-10-02T06:00:01.783Z,127.28
2022-10-02T06:01:01.799Z,127.47
2022-10-02T06:02:01.875Z,128.06
2022-10-02T06:03:01.700Z,129.54
2022-10-02T06:04:01.906Z,131.27
2022-10-02T06:05:01.675Z,132.41
2022-10-02T06:06:01.747Z,134.54
2022-10-02T06:07:01.649Z,137.86
2022-10-02T06:08:01.647Z,139.35
2022-10-02T06:09:01.623Z,141.83
2022-10-02T06:10:01.616Z,144.15
2022-10-02T06:11:01.734Z,146.29
2022-10-02T06:12:01.589Z,146.67
2022-10-02T06:13:01.570Z,145.40
2022-10-02T06:14:01.549Z,144.15
2022-10-02T06:15:01.553Z,143.53
2022-10-02T06:16:01.568Z,142.07
2022-10-02T06:17:01.547Z,138.77
2022-10-02T06:18:01.518Z,136.18
2022-10-02T06:19:01.501Z,134.21
2022-10-02T06:20:03.591Z,131.37
2022-10-02T06:21:01.466Z,127.86
2022-10-02T06:22:01.466Z,124.35
2022-10-02T06:23:01.497Z,122.62
2022-10-02T06:24:01.514Z,121.20
2022-10-02T06:25:01.414Z,118.79
2022-10-02T06:26:01.429Z,116.81
2022-10-02T06:27:01.428Z,114.80
2022-10-02T06:28:01.434Z,112.87
2022-10-02T06:29:01.419Z,112.72
2022-10-02T06:30:01.379Z,111.96
2022-10-02T06:31:01.410Z,110.05
2022-10-02T06:32:01.344Z,109.19
2022-10-02T06:33:01.375Z,108.27
2022-10-02T06:34:01.354Z,107.86
2022-10-02T06:35:01.341Z,107.79
2022-10-02T06:36:01.279Z,107.10
2022-10-02T06:37:01.278Z,106.15
2022-10-02T06:38:01.262Z,105.68
2022-10-02T06:39:01.279Z,105.28
2022-10-02T06:40:01.280Z,104.36
2022-10-02T06:41:03.067Z,103.91
2022-10-02T06:42:01.229Z,103.84
2022-10-02T06:43:01.225Z,102.89
2022-10-02T06:44:01.611Z,103.46
2022-10-02T06:45:02.215Z,102.76
2022-10-02T06:46:05.478Z,103.01
2022-10-02T06:47:05.045Z,102.32
2022-10-02T06:48:02.113Z,102.13
2022-10-02T06:49:04.856Z,103.52
2022-10-02T06:50:01.112Z,103.14
2022-10-02T06:51:01.085Z,104.49
2022-10-02T06:52:01.050Z,104.62
2022-10-02T06:53:01.066Z,104.49
2022-10-02T06:54:01.036Z,104.17
2022-10-02T06:55:01.030Z,102.89
2022-10-02T06:56:01.015Z,102.76
2022-10-02T06:57:01.031Z,102.82
2022-10-02T06:58:00.991Z,102.76
2022-10-02T06:59:00.973Z,102.01
2022-10-02T07:00:00.947Z,102.51
2022-10-02T07:01:01.040Z,103.33
2022-10-02T07:02:00.967Z,103.08
2022-10-02T07:03:00.963Z,102.07
2022-10-02T07:04:00.922Z,103.97
2022-10-02T07:05:00.921Z,103.27
2022-10-02T07:06:00.970Z,103.39
2022-10-02T07:07:00.912Z,103.84
2022-10-02T07:08:00.853Z,104.10
2022-10-02T07:09:00.907Z,104.04
2022-10-02T07:10:00.890Z,104.30
2022-10-02T07:11:00.807Z,103.65
2022-10-02T07:12:00.801Z,103.59
2022-10-02T07:13:00.792Z,104.04
2022-10-02T07:14:00.776Z,103.27
2022-10-02T07:15:00.751Z,103.97
2022-10-02T07:16:00.792Z,105.35
2022-10-02T07:17:00.733Z,105.88
2022-10-02T07:18:00.749Z,106.15
2022-10-02T07:19:00.742Z,105.94
2022-10-02T07:20:00.678Z,106.35
2022-10-02T07:21:00.689Z,107.44
2022-10-02T07:22:00.673Z,107.72
2022-10-02T07:23:00.645Z,107.72
2022-10-02T07:24:02.610Z,107.93
2022-10-02T07:25:00.616Z,107.10
2022-10-02T07:26:00.617Z,108.84
2022-10-02T07:27:00.601Z,109.69
2022-10-02T07:28:00.642Z,111.00
2022-10-02T07:29:00.566Z,112.26
2022-10-02T07:30:00.564Z,112.95
2022-10-02T07:31:00.552Z,113.79
2022-10-02T07:32:00.544Z,115.20
2022-10-02T07:33:00.535Z,115.20
2022-10-02T07:34:00.492Z,116.08
2022-10-02T07:35:00.502Z,118.21
2022-10-02T07:36:00.487Z,119.99
2022-10-02T07:37:00.458Z,124.26
2022-10-02T07:38:00.455Z,128.85
2022-10-02T07:39:00.458Z,132.73
2022-10-02T07:40:00.413Z,136.85
2022-10-02T07:41:00.422Z,140.17
2022-10-02T07:42:00.388Z,143.28
2022-10-02T07:43:00.379Z,144.40
2022-10-02T07:44:00.382Z,147.58
2022-10-02T07:45:00.349Z,154.09
2022-10-02T07:46:00.408Z,161.37
2022-10-02T07:47:00.337Z,167.33
2022-10-02T07:48:00.317Z,171.09
2022-10-02T07:49:00.302Z,175.21
2022-10-02T07:50:00.303Z,179.34
2022-10-02T07:51:00.317Z,181.47
2022-10-02T07:52:00.293Z,182.86
2022-10-02T07:53:00.275Z,185.17
2022-10-02T07:54:00.260Z,188.89
2022-10-02T07:55:00.288Z,192.53
2022-10-02T07:56:00.238Z,204.36
2022-10-02T07:57:00.233Z,219.18
2022-10-02T07:58:00.215Z,227.51
2022-10-02T07:59:00.181Z,237.01
2022-10-02T08:00:00.175Z,249.77
2022-10-02T08:01:00.217Z,257.38
2022-10-02T08:02:00.228Z,267.85
2022-10-02T08:03:00.189Z,280.63
2022-10-02T08:04:00.199Z,297.62
2022-10-02T08:05:00.111Z,312.00
2022-10-02T08:06:00.087Z,323.01
2022-10-02T08:07:00.081Z,333.14
2022-10-02T08:08:00.049Z,349.03
2022-10-02T08:09:00.092Z,356.97
2022-10-02T08:10:00.035Z,361.28
2022-10-02T08:11:00.052Z,363.67
2022-10-02T08:11:59.998Z,365.69
2022-10-02T08:13:00.005Z,373.58
2022-10-02T08:13:59.995Z,383.13
2022-10-02T08:15:00.003Z,390.28
2022-10-02T08:15:59.978Z,393.03
2022-10-02T08:16:59.990Z,401.28
2022-10-02T08:18:16.393Z,415.99
2022-10-02T08:18:59.936Z,430.99
2022-10-02T08:19:59.909Z,450.73
2022-10-02T08:20:59.916Z,468.06
2022-10-02T08:21:59.898Z,475.71
2022-10-02T08:22:59.882Z,476.05
2022-10-02T08:23:59.857Z,497.64
2022-10-02T08:24:59.891Z,498.76
2022-10-02T08:25:59.812Z,501.75
2022-10-02T08:26:59.850Z,510.55
2022-10-02T08:27:59.853Z,541.09
2022-10-02T08:28:59.813Z,547.28
2022-10-02T08:29:59.784Z,575.03
2022-10-02T08:30:59.762Z,588.16
2022-10-02T08:31:59.804Z,600.30
2022-10-02T08:32:59.744Z,624.38
2022-10-02T08:33:59.719Z,647.95
2022-10-02T08:34:59.702Z,670.00
2022-10-02T08:35:59.699Z,688.61
2022-10-02T08:36:59.719Z,707.54
2022-10-02T08:37:59.676Z,727.53
2022-10-02T08:38:59.655Z,746.19
2022-10-02T08:39:59.656Z,763.10
2022-10-02T08:40:59.638Z,771.45
2022-10-02T08:41:59.598Z,777.71
2022-10-02T08:42:59.730Z,788.23
2022-10-02T08:43:59.599Z,804.32
2022-10-02T08:44:59.615Z,828.18
2022-10-02T08:45:59.636Z,859.53
2022-10-02T08:46:59.534Z,881.58
2022-10-02T08:47:59.558Z,881.00
2022-10-02T08:48:59.528Z,877.54
2022-10-02T08:49:59.531Z,883.32
2022-10-02T08:50:59.495Z,899.93
2022-10-02T08:51:59.494Z,898.12
2022-10-02T08:52:59.517Z,886.83
2022-10-02T08:53:59.452Z,883.91
2022-10-02T08:54:59.433Z,872.96
2022-10-02T08:55:59.413Z,864.52
2022-10-02T08:56:59.441Z,856.23
2022-10-02T08:57:59.386Z,831.78
2022-10-02T08:58:59.408Z,825.63
2022-10-02T08:59:59.363Z,807.72
2022-10-02T09:00:59.420Z,788.23
2022-10-02T09:02:00.211Z,771.45
2022-10-02T09:02:59.393Z,751.12
2022-10-02T09:03:59.339Z,742.88
2022-10-02T09:04:59.323Z,722.04
2022-10-02T09:05:59.288Z,705.30
2022-10-02T09:06:59.307Z,703.08
2022-10-02T09:07:59.267Z,695.05
2022-10-02T09:08:59.273Z,700.14
2022-10-02T09:09:59.237Z,710.54
2022-10-02T09:10:59.224Z,700.14
2022-10-02T09:11:59.207Z,700.87
2022-10-02T09:12:59.201Z,722.82
2022-10-02T09:13:59.217Z,724.38
2022-10-02T09:14:59.268Z,731.51
2022-10-02T09:15:59.176Z,734.72
2022-10-02T09:16:59.160Z,738.78
2022-10-02T09:17:59.123Z,749.44
2022-10-02T09:18:59.135Z,752.81
2022-10-02T09:19:59.121Z,751.54
2022-10-02T09:20:59.105Z,737.15
2022-10-02T09:21:59.068Z,735.53
2022-10-02T09:22:59.079Z,743.70
2022-10-02T09:23:59.074Z,742.05
2022-10-02T09:24:59.043Z,724.38
2022-10-02T09:25:59.040Z,733.91
2022-10-02T09:26:59.024Z,737.96
2022-10-02T09:27:59.075Z,739.59
2022-10-02T09:28:59.004Z,741.23
2022-10-02T09:29:58.982Z,746.19
2022-10-02T09:30:58.958Z,739.59
2022-10-02T09:31:58.971Z,728.32
2022-10-02T09:32:58.961Z,736.34
2022-10-02T09:33:58.912Z,733.11
2022-10-02T09:34:58.921Z,729.91
2022-10-02T09:35:58.921Z,755.78
2022-10-02T09:36:58.879Z,780.43
2022-10-02T09:37:58.895Z,791.96
2022-10-02T09:38:58.843Z,820.58
2022-10-02T09:39:59.148Z,832.30
2022-10-02T09:40:58.860Z,854.05
2022-10-02T09:41:58.876Z,876.96
2022-10-02T09:42:58.948Z,882.16
2022-10-02T09:43:58.806Z,887.42
2022-10-02T09:45:01.406Z,879.84
2022-10-02T09:45:59.012Z,865.63
2022-10-02T09:46:58.755Z,861.18
2022-10-02T09:47:58.766Z,855.14
2022-10-02T09:48:58.737Z,851.88
2022-10-02T09:49:58.720Z,856.78
2022-10-02T09:50:58.699Z,852.96
2022-10-02T09:51:58.856Z,842.77
2022-10-02T09:52:58.664Z,844.36
2022-10-02T09:53:59.132Z,826.14
2022-10-02T09:54:58.632Z,846.49
2022-10-02T09:55:58.631Z,869.57
2022-10-02T09:56:58.621Z,905.41
2022-10-02T09:57:58.740Z,940.35
2022-10-02T09:58:58.595Z,968.21
2022-10-02T09:59:58.631Z,980.25
2022-10-02T10:00:58.599Z,970.31
2022-10-02T10:01:58.606Z,953.06
2022-10-02T10:02:58.882Z,958.51
2022-10-02T10:03:58.634Z,1000.75
2022-10-02T10:05:06.161Z,1016.69
2022-10-02T10:05:58.519Z,1056.78
2022-10-02T10:06:58.505Z,1122.28
2022-10-02T10:07:58.694Z,1174.41
2022-10-02T10:08:58.486Z,1212.67
2022-10-02T10:09:58.457Z,1222.63
2022-10-02T10:10:58.451Z,1224.86
2022-10-02T10:11:58.446Z,1215.97
2022-10-02T10:12:58.433Z,1200.72
2022-10-02T10:13:58.490Z,1175.44
2022-10-02T10:14:58.395Z,1156.17
2022-10-02T10:15:58.415Z,1137.52
2022-10-02T10:16:58.348Z,1112.96
2022-10-02T10:17:58.434Z,1087.66
2022-10-02T10:18:58.320Z,1065.18
2022-10-02T10:19:58.341Z,1043.61
2022-10-02T10:20:58.386Z,1018.24
2022-10-02T10:21:58.288Z,993.33
2022-10-02T10:22:58.298Z,994.07
2022-10-02T10:23:58.277Z,979.53
2022-10-02T10:24:58.267Z,961.26
2022-10-02T10:25:58.253Z,919.70
2022-10-02T10:26:58.211Z,868.44
2022-10-02T10:27:58.250Z,791.96
2022-10-02T10:28:58.192Z,718.16
2022-10-02T10:29:58.198Z,660.74
2022-10-02T10:30:58.205Z,594.96
2022-10-02T10:31:58.261Z,512.50
2022-10-02T10:32:58.167Z,432.38
2022-10-02T10:33:58.123Z,357.36
2022-10-02T10:34:58.107Z,298.43
2022-10-02T10:35:58.104Z,249.01
2022-10-02T10:36:58.098Z,212.54
2022-10-02T10:37:58.109Z,183.66
2022-10-02T10:38:58.087Z,161.84
2022-10-02T10:39:58.063Z,144.65
2022-10-02T10:40:58.024Z,130.96
2022-10-02T10:41:58.047Z,120.07
2022-10-02T10:43:13.327Z,110.93
2022-10-02T10:43:58.030Z,103.46
2022-10-02T10:44:58.021Z,97.21
2022-10-02T10:45:58.027Z,93.23
2022-10-02T10:46:57.953Z,88.50
2022-10-02T10:47:57.969Z,84.49
2022-10-02T10:48:57.952Z,80.82
2022-10-02T10:49:57.940Z,78.10
2022-10-02T10:50:57.921Z,75.09
2022-10-02T10:51:57.930Z,72.37
2022-10-02T10:52:57.909Z,70.07
2022-10-02T10:54:01.719Z,68.02
2022-10-02T10:54:57.861Z,66.72
2022-10-02T10:55:57.838Z,65.57
2022-10-02T10:56:57.990Z,64.16
2022-10-02T10:57:57.832Z,64.46
2022-10-02T10:58:57.790Z,63.15
2022-10-02T10:59:57.804Z,62.81
2022-10-02T11:00:57.818Z,61.98
2022-10-02T11:01:57.835Z,61.25
2022-10-02T11:02:57.772Z,60.15
2022-10-02T11:03:57.781Z,60.72
2022-10-02T11:04:57.814Z,63.38
2022-10-02T11:05:57.741Z,66.14
2022-10-02T11:06:57.698Z,74.49
2022-10-02T11:07:57.731Z,89.93
2022-10-02T11:08:57.706Z,103.97
2022-10-02T11:09:57.847Z,119.30
2022-10-02T11:10:57.792Z,131.79
2022-10-02T11:11:57.657Z,147.84
2022-10-02T11:12:57.612Z,164.21
2022-10-02T11:13:57.604Z,166.83
2022-10-02T11:14:57.604Z,177.81
2022-10-02T11:15:57.599Z,177.25
2022-10-02T11:16:57.590Z,170.05
2022-10-02T11:17:57.547Z,164.54
2022-10-02T11:18:57.569Z,169.19
2022-10-02T11:19:57.561Z,186.32
2022-10-02T11:20:57.549Z,199.05
2022-10-02T11:21:57.515Z,200.62
2022-10-02T11:22:57.534Z,204.49
2022-10-02T11:23:57.490Z,201.36
2022-10-02T11:24:57.467Z,187.60
2022-10-02T11:25:57.443Z,175.76
2022-10-02T11:26:57.482Z,158.62
2022-10-02T11:27:57.543Z,143.16
2022-10-02T11:28:57.534Z,132.31
2022-10-02T11:29:57.548Z,123.25
2022-10-02T11:30:57.531Z,114.73
2022-10-02T11:31:57.386Z,106.28
2022-10-02T11:32:57.372Z,99.46
2022-10-02T11:33:57.437Z,95.55
2022-10-02T11:34:57.357Z,93.75
2022-10-02T11:35:57.334Z,89.74
2022-10-02T11:36:57.338Z,85.43
2022-10-02T11:38:01.739Z,82.25
2022-10-02T11:38:57.312Z,79.36
2022-10-02T11:39:57.259Z,77.31
2022-10-02T11:40:57.246Z,75.57
2022-10-02T11:41:57.262Z,73.06
2022-10-02T11:42:57.263Z,70.42
2022-10-02T11:43:57.242Z,68.57
2022-10-02T11:44:57.204Z,67.15
2022-10-02T11:45:57.348Z,66.67
2022-10-02T11:46:57.164Z,66.67
2022-10-02T11:47:57.207Z,67.58
2022-10-02T11:48:57.164Z,68.69
2022-10-02T11:49:57.149Z,68.86
2022-10-02T11:50:57.123Z,70.24
2022-10-02T11:51:57.156Z,71.02
2022-10-02T11:52:57.075Z,71.32
2022-10-02T11:53:57.109Z,73.96
2022-10-02T11:54:57.072Z,75.16
2022-10-02T11:55:57.089Z,76.67
2022-10-02T11:56:57.041Z,76.89
2022-10-02T11:57:57.064Z,76.53
2022-10-02T11:58:58.997Z,76.46
2022-10-02T11:59:57.065Z,77.89
2022-10-02T12:00:57.121Z,80.28
2022-10-02T12:01:57.259Z,86.14
2022-10-02T12:02:57.043Z,94.85
2022-10-02T12:03:56.989Z,110.42
2022-10-02T12:04:57.191Z,135.08
2022-10-02T12:05:58.729Z,172.15
2022-10-02T12:06:57.438Z,211.44
2022-10-02T12:07:56.936Z,255.38
2022-10-02T12:08:56.921Z,288.75
2022-10-02T12:09:57.675Z,324.92
2022-10-02T12:10:57.119Z,366.92
2022-10-02T12:11:57.042Z,399.36
2022-10-02T12:12:57.214Z,422.82
2022-10-02T12:13:57.084Z,446.52
2022-10-02T12:14:57.025Z,474.37
2022-10-02T12:15:57.093Z,498.01
2022-10-02T12:16:56.808Z,540.22
2022-10-02T12:17:56.776Z,563.88
2022-10-02T12:18:56.775Z,568.67
2022-10-02T12:19:56.751Z,585.59
2022-10-02T12:20:56.736Z,593.90
2022-10-02T12:21:56.708Z,598.68
2022-10-02T12:22:56.681Z,613.50
2022-10-02T12:23:56.690Z,626.13
2022-10-02T12:24:56.657Z,639.28
2022-10-02T12:25:56.652Z,647.32
2022-10-02T12:26:56.661Z,669.33
2022-10-02T12:27:56.692Z,687.20
2022-10-02T12:28:56.615Z,703.82
2022-10-02T12:29:56.620Z,718.16
2022-10-02T12:30:56.575Z,709.04
2022-10-02T12:31:56.634Z,705.30
2022-10-02T12:32:56.581Z,715.86
2022-10-02T12:33:57.080Z,726.74